This is the latest recevied weather packets stored in our database for station/object W0DXV. If no packets are shown the sender has not sent any weather packets the latest 10 day(s).
| Time | Temp. | Humidity | Pressure | Rain* | Wind** | Luminosity | Snow |
|---|---|---|---|---|---|---|---|
| 1777303451 | 16.11° C | 63% | 1020.1 hPa | 0 mm | - | 668 W/m² | - |
| 1777303149 | 16.67° C | 61% | 1019.7 hPa | 0 mm | - | 630 W/m² | - |
| 1777302847 | 16.11° C | 60% | 1019.7 hPa | 0 mm | - | 656 W/m² | - |
| 1777302544 | 16.11° C | 62% | 1020 hPa | 0 mm | - | 647 W/m² | - |
| 1777302242 | 16.11° C | 61% | 1020 hPa | 0 mm | - | 616 W/m² | - |
| 1777301939 | 15.56° C | 62% | 1020 hPa | 0 mm | - | 625 W/m² | - |
| 1777301636 | 15.56° C | 64% | 1020.3 hPa | 0 mm | - | 614 W/m² | - |
| 1777301334 | 15.56° C | 64% | 1020.3 hPa | 0 mm | - | 391 W/m² | - |
| 1777301030 | 15.56° C | 64% | 1020.3 hPa | 0 mm | - | 397 W/m² | - |
| 1777300728 | 15° C | 65% | 1020.3 hPa | 0 mm | - | 597 W/m² | - |
| 1777300426 | 15° C | 65% | 1020.2 hPa | 0 mm | - | 587 W/m² | - |
| 1777300123 | 15° C | 64% | 1020.5 hPa | 0 mm | - | 584 W/m² | - |
| 1777299819 | 14.44° C | 67% | 1020.3 hPa | 0 mm | - | 550 W/m² | - |
| 1777299517 | 13.89° C | 70% | 1020.4 hPa | 0 mm | - | 594 W/m² | - |
| 1777299214 | 13.89° C | 69% | 1020.5 hPa | 0 mm | - | 371 W/m² | - |
| 1777298912 | 13.89° C | 69% | 1020.4 hPa | 0 mm | - | 489 W/m² | - |
| 1777298609 | 14.44° C | 67% | 1020.5 hPa | 0 mm | - | 203 W/m² | - |
| 1777298305 | 13.89° C | 70% | 1020.3 hPa | 0 mm | - | 586 W/m² | - |
| 1777298000 | 13.33° C | 70% | 1020.2 hPa | 0 mm | - | 590 W/m² | - |
| 1777297696 | 14.44° C | 68% | 1020.4 hPa | 0 mm | - | 199 W/m² | - |
| 1777297395 | 14.44° C | 69% | 1020.4 hPa | 0 mm | - | 413 W/m² | - |
| 1777297091 | 13.89° C | 70% | 1020.5 hPa | 0 mm | - | 465 W/m² | - |
| 1777296788 | 13.33° C | 71% | 1020.5 hPa | 0 mm | - | 223 W/m² | - |
| 1777296484 | 12.78° C | 72% | 1020.3 hPa | 0 mm | - | 387 W/m² | - |
| 1777296180 | 12.78° C | 74% | 1020.1 hPa | 0 mm | - | 197 W/m² | - |
* Rain latest hour (hover to see other rain measurements)
** Current wind speed in m/s (hover to see current wind gust speed)